Terminal Aerodrome Forecast
Issued by NWS Topeka, KS

Home | Current Version | Previous Version | Text Only | Print | Product List | Glossary On
Versions: 1 2 3 4 5 6 7 8 9 10 11 12 13 14 15 16 17 18 19 20 21 22 23
093
FTUS43 KTOP 251258 AAA
TAFTOP
TAF AMD
KTOP 251258Z 2513/2612 02003KT 6SM -SHRA SCT006 BKN020
     FM251700 07006KT P6SM BKN035
     FM260000 04005KT P6SM VCTS OVC050CB
     FM260600 04008KT 4SM -SHRA VCTS BKN020CB=

USA.gov is the U.S. government's official web portal to all federal, state and local government web resources and services.